Time;durP1;ratioP1;P1;durP2;ratioP2;P2;SDS_P1;SDS_P2;PMS_P1;PMS_P2;Temp;Humidity;BMP_temperature;BMP_pressure;BME280_temperature;BME280_humidity;BME280_pressure;Samples;Min_cycle;Max_cycle;Signal;HPM_P1;HPM_P2
2021/04/06 00:00:08;;;;;;;7.10;2.00;;;;;;;12.51;32.27;102677.34;4975130;28;20478;-78
2021/04/06 00:02:35;;;;;;;5.15;2.00;;;;;;;12.61;32.01;102671.00;4975659;28;20027;-77
2021/04/06 00:05:05;;;;;;;4.00;1.90;;;;;;;12.59;32.11;102674.03;4975506;28;20027;-77
2021/04/06 00:07:31;;;;;;;6.57;2.22;;;;;;;12.52;32.19;102678.16;4975836;28;20023;-78
2021/04/06 00:10:05;;;;;;;6.70;1.95;;;;;;;12.45;32.21;102671.03;4975401;28;20035;-77
2021/04/06 00:12:31;;;;;;;7.30;2.25;;;;;;;12.47;32.19;102665.31;4974171;28;20054;-78
2021/04/06 00:14:59;;;;;;;9.20;2.33;;;;;;;12.38;32.25;102666.97;4975617;28;20066;-77
2021/04/06 00:17:26;;;;;;;7.60;2.10;;;;;;;12.42;32.32;102659.84;4975275;28;20035;-77
2021/04/06 00:19:56;;;;;;;7.30;1.98;;;;;;;12.37;32.39;102657.09;4975587;28;20038;-77
2021/04/06 00:22:26;;;;;;;6.00;1.52;;;;;;;12.32;32.49;102666.19;4974924;28;20027;-77
2021/04/06 00:24:53;;;;;;;11.35;2.25;;;;;;;12.33;32.38;102659.59;4975268;28;20086;-77
2021/04/06 00:27:28;;;;;;;7.68;2.65;;;;;;;12.29;32.33;102652.19;4975286;28;20164;-77
2021/04/06 00:30:02;;;;;;;8.50;1.97;;;;;;;12.23;32.49;102654.94;4975450;28;20389;-77
2021/04/06 00:32:28;;;;;;;2.83;1.70;;;;;;;12.24;32.53;102653.00;4973838;28;20438;-77
2021/04/06 00:34:58;;;;;;;5.13;1.77;;;;;;;12.29;32.38;102641.22;4974683;28;20022;-77
2021/04/06 00:37:25;;;;;;;4.22;1.95;;;;;;;12.26;32.54;102648.09;4975029;28;20478;-77
2021/04/06 00:40:06;;;;;;;5.07;1.75;;;;;;;12.18;32.66;102645.91;4974891;28;20106;-77
2021/04/06 00:42:33;;;;;;;8.48;4.45;;;;;;;12.17;32.56;102628.66;4975029;28;20027;-77
2021/04/06 00:45:08;;;;;;;6.47;2.03;;;;;;;12.16;32.79;102642.63;4974787;28;20517;-77
2021/04/06 00:47:34;;;;;;;4.75;1.33;;;;;;;12.12;32.96;102647.84;4974728;28;20043;-77
2021/04/06 00:50:20;;;;;;;5.70;1.98;;;;;;;12.13;32.97;102643.19;4973470;28;20031;-77
2021/04/06 00:52:47;;;;;;;10.70;2.37;;;;;;;12.13;32.74;102638.53;4974428;28;20038;-77
2021/04/06 00:55:17;;;;;;;3.35;1.50;;;;;;;12.10;32.83;102636.34;4974826;28;20061;-76
2021/04/06 00:57:44;;;;;;;12.05;3.45;;;;;;;12.12;32.80;102645.09;4974609;28;20062;-77
2021/04/06 01:00:19;;;;;;;7.03;2.53;;;;;;;12.04;33.00;102645.66;4974626;28;20027;-77
2021/04/06 01:03:03;;;;;;;10.43;2.20;;;;;;;11.94;33.34;102645.69;4974625;28;20030;-77
2021/04/06 01:05:31;;;;;;;9.43;2.13;;;;;;;12.00;33.11;102639.09;4974661;28;20035;-77
2021/04/06 01:07:58;;;;;;;8.35;2.65;;;;;;;12.17;32.79;102636.06;4974520;28;20031;-77
2021/04/06 01:10:30;;;;;;;5.23;1.83;;;;;;;12.16;32.85;102637.13;4974368;28;20027;-77
2021/04/06 01:12:57;;;;;;;4.85;1.85;;;;;;;12.15;32.78;102625.34;4974792;28;20121;-77
2021/04/06 01:15:25;;;;;;;9.05;2.10;;;;;;;11.90;33.28;102628.16;4974288;28;20026;-78
2021/04/06 01:17:50;;;;;;;5.87;1.67;;;;;;;11.84;33.59;102632.00;4974253;28;20030;-77
2021/04/06 01:20:19;;;;;;;9.43;2.20;;;;;;;11.85;33.44;102618.00;4974548;28;20026;-77
2021/04/06 01:22:52;;;;;;;6.77;1.97;;;;;;;11.84;33.52;102621.84;4974420;28;20089;-77
2021/04/06 01:25:20;;;;;;;5.82;2.13;;;;;;;11.81;33.58;102616.94;4972895;28;20143;-77
2021/04/06 01:27:47;;;;;;;13.27;2.92;;;;;;;11.75;33.87;102620.72;4974174;28;20367;-77
2021/04/06 01:30:15;;;;;;;6.65;1.70;;;;;;;11.68;33.92;102615.53;4974089;28;20058;-77
2021/04/06 01:32:41;;;;;;;8.93;2.58;;;;;;;11.74;34.02;102613.63;4974137;28;20034;-77
2021/04/06 01:35:09;;;;;;;6.55;1.70;;;;;;;11.45;34.29;102607.06;4974244;28;20055;-77
2021/04/06 01:37:36;;;;;;;11.32;2.25;;;;;;;11.39;34.47;102612.53;4974234;28;20031;-77
2021/04/06 01:40:04;;;;;;;10.33;1.80;;;;;;;11.43;34.31;102612.00;4974187;28;20370;-77
2021/04/06 01:42:33;;;;;;;5.13;1.65;;;;;;;11.38;34.65;102613.63;4974027;28;20031;-77
2021/04/06 01:45:03;;;;;;;13.95;2.58;;;;;;;11.40;34.54;102602.38;4973879;28;20055;-77
2021/04/06 01:47:29;;;;;;;10.75;3.10;;;;;;;11.43;34.57;102607.34;4973794;28;20043;-78
2021/04/06 01:49:57;;;;;;;4.40;2.00;;;;;;;11.45;34.21;102599.66;4973902;28;20031;-77
2021/04/06 01:52:23;;;;;;;8.40;1.83;;;;;;;11.37;34.74;102602.94;4973859;28;20031;-77
2021/04/06 01:54:56;;;;;;;6.22;2.05;;;;;;;11.24;34.91;102601.56;4972717;28;20037;-77
2021/04/06 01:57:34;;;;;;;5.18;2.22;;;;;;;11.32;34.69;102594.72;4973846;28;20026;-77
2021/04/06 02:00:14;;;;;;;5.80;3.13;;;;;;;11.29;34.87;102595.28;4973900;28;20038;-77
2021/04/06 02:02:42;;;;;;;;;;;;;;;11.43;34.58;102593.66;4974473;28;20031;-77
2021/04/06 02:05:10;;;;;;;12.52;3.95;;;;;;;11.64;34.15;102606.25;4973982;28;19914;-77
2021/04/06 02:07:39;;;;;;;5.13;1.77;;;;;;;11.69;33.98;102602.66;4973827;28;20109;-78
2021/04/06 02:10:08;;;;;;;6.13;1.67;;;;;;;11.60;34.48;102596.91;4973766;28;20078;-77
2021/04/06 02:12:44;;;;;;;8.38;2.13;;;;;;;11.39;34.84;102600.75;4973818;28;20081;-77
2021/04/06 02:15:12;;;;;;;6.75;2.40;;;;;;;11.54;34.57;102603.50;4973535;28;20033;-77
2021/04/06 02:17:51;;;;;;;6.30;1.57;;;;;;;11.60;34.62;102599.66;4973622;28;20449;-77
2021/04/06 02:20:26;;;;;;;5.20;1.60;;;;;;;11.63;34.67;102598.28;4973675;28;20030;-77
2021/04/06 02:22:56;;;;;;;4.05;1.60;;;;;;;11.60;34.80;102605.13;4973537;28;20233;-77
2021/04/06 02:25:22;;;;;;;4.55;1.20;;;;;;;11.71;34.64;102597.72;4973571;28;20457;-77
2021/04/06 02:27:47;;;;;;;2.60;1.42;;;;;;;11.66;35.08;102598.56;4973595;28;20116;-77
2021/04/06 02:30:13;;;;;;;7.05;2.05;;;;;;;11.70;34.97;102598.81;4973505;28;20046;-77
2021/04/06 02:32:39;;;;;;;7.15;1.95;;;;;;;11.97;34.51;102601.28;4972191;28;20054;-77
2021/04/06 02:35:10;;;;;;;4.35;2.10;;;;;;;11.96;34.83;102598.84;4973382;28;20120;-76
2021/04/06 02:37:42;;;;;;;5.07;1.67;;;;;;;12.10;34.67;102600.72;4973437;28;20102;-77
2021/04/06 02:40:10;;;;;;;4.82;1.33;;;;;;;12.22;34.38;102598.47;4973417;28;20031;-77
2021/04/06 02:42:36;;;;;;;9.00;2.15;;;;;;;12.30;34.26;102601.75;4973395;28;20497;-77
2021/04/06 02:45:20;;;;;;;6.55;1.60;;;;;;;12.13;34.77;102593.84;4973215;28;20038;-77
2021/04/06 02:48:16;;;;;;;9.13;2.15;;;;;;;11.93;35.19;102601.00;4973369;28;20042;-77
2021/04/06 02:50:43;;;;;;;4.95;1.60;;;;;;;12.25;34.63;102599.03;4960538;28;20609;-77
2021/04/06 02:53:15;;;;;;;6.55;1.20;;;;;;;12.20;34.69;102599.88;4972517;28;20027;-76
2021/04/06 02:55:41;;;;;;;5.55;1.50;;;;;;;12.22;34.85;102590.25;4973311;28;20485;-78
2021/04/06 02:58:15;;;;;;;4.15;1.30;;;;;;;12.33;34.46;102591.06;4973158;28;20031;-77
2021/04/06 03:00:41;;;;;;;5.47;1.60;;;;;;;12.36;34.53;102581.44;4975821;28;20550;-77
2021/04/06 03:03:23;;;;;;;4.30;1.10;;;;;;;12.42;34.63;102570.19;4975578;28;20081;-78
2021/04/06 03:06:12;;;;;;;3.08;1.23;;;;;;;12.45;34.72;102569.59;4976658;28;20090;-77
2021/04/06 03:08:40;;;;;;;6.75;1.50;;;;;;;12.74;34.24;102555.19;4976860;28;20046;-77
2021/04/06 03:11:11;;;;;;;6.88;1.70;;;;;;;12.67;34.24;102550.03;4976574;28;20073;-77
2021/04/06 03:13:43;;;;;;;4.75;2.20;;;;;;;12.68;34.35;102539.88;4976624;28;20541;-78
2021/04/06 03:16:10;;;;;;;7.60;1.50;;;;;;;12.60;34.62;102549.53;4976633;28;20474;-77
2021/04/06 03:18:41;;;;;;;9.27;2.67;;;;;;;12.62;34.37;102552.81;4976561;28;20030;-77
2021/04/06 03:21:11;;;;;;;6.40;2.20;;;;;;;12.62;34.60;102551.97;4976510;28;20031;-77
2021/04/06 03:23:38;;;;;;;5.13;2.03;;;;;;;12.71;34.35;102559.34;4976475;28;20037;-77
2021/04/06 03:26:06;;;;;;;4.25;1.08;;;;;;;12.64;34.67;102550.59;4976233;28;20471;-77
2021/04/06 03:28:37;;;;;;;7.20;1.63;;;;;;;12.62;34.59;102560.19;4976278;28;20031;-77
2021/04/06 03:31:09;;;;;;;5.03;2.20;;;;;;;12.58;34.67;102551.72;4975276;28;20035;-77
2021/04/06 03:33:38;;;;;;;4.07;1.38;;;;;;;12.70;34.37;102554.97;4976352;28;20059;-77
2021/04/06 03:36:04;;;;;;;6.93;1.83;;;;;;;12.68;34.49;102556.34;4976090;28;20035;-77
2021/04/06 03:38:31;;;;;;;3.55;1.45;;;;;;;12.76;34.52;102551.06;4976181;28;20300;-77
2021/04/06 03:40:57;;;;;;;6.72;1.52;;;;;;;12.76;34.47;102551.06;4976222;28;20115;-77
2021/04/06 03:43:22;;;;;;;4.32;1.60;;;;;;;12.57;34.84;102544.63;4976200;28;20129;-77
2021/04/06 03:46:03;;;;;;;11.90;1.60;;;;;;;12.77;34.48;102533.53;4975903;28;20066;-78
2021/04/06 03:48:31;;;;;;;4.63;1.70;;;;;;;12.58;34.88;102545.44;4976036;28;20038;-77
2021/04/06 03:50:57;;;;;;;8.55;2.28;;;;;;;12.57;34.97;102530.91;4975904;28;20086;-77
2021/04/06 03:53:25;;;;;;;7.13;1.38;;;;;;;12.60;34.84;102524.03;4976092;28;20037;-77
2021/04/06 03:56:06;;;;;;;10.43;1.73;;;;;;;12.45;35.14;102513.97;4974692;28;20051;-78
2021/04/06 03:58:38;;;;;;;3.47;1.30;;;;;;;12.36;35.27;102515.66;4974796;28;20038;-77
2021/04/06 04:01:05;;;;;;;3.05;1.35;;;;;;;12.17;35.30;102501.78;4975828;28;20031;-77
2021/04/06 04:03:31;;;;;;;8.73;2.30;;;;;;;12.28;35.24;102518.97;4975838;28;20039;-77
2021/04/06 04:05:56;;;;;;;3.70;1.17;;;;;;;12.17;35.54;102510.81;4974685;28;20042;-77
2021/04/06 04:08:22;;;;;;;6.97;1.42;;;;;;;12.07;35.72;102510.03;4975522;28;20027;-77
2021/04/06 04:10:47;;;;;;;7.38;1.75;;;;;;;11.67;36.51;102515.31;4974501;28;20050;-77
2021/04/06 04:13:13;;;;;;;7.70;1.73;;;;;;;12.10;35.63;102515.78;4975473;28;20018;-77
2021/04/06 04:15:38;;;;;;;9.05;4.18;;;;;;;11.80;36.32;102532.28;4974168;28;20027;-77
2021/04/06 04:18:04;;;;;;;10.80;2.42;;;;;;;11.99;35.82;102527.03;4975379;28;20062;-77
2021/04/06 04:20:30;;;;;;;31.45;4.03;;;;;;;12.02;35.67;102532.78;4974043;28;20031;-77
2021/04/06 04:22:56;;;;;;;5.25;1.70;;;;;;;12.13;35.27;102528.91;4975378;28;20018;-77
2021/04/06 04:25:22;;;;;;;7.95;2.53;;;;;;;11.99;35.65;102522.38;4975403;28;20027;-77
2021/04/06 04:27:48;;;;;;;4.32;1.30;;;;;;;11.89;35.93;102522.41;4975228;28;20045;-77
2021/04/06 04:30:15;;;;;;;6.72;1.85;;;;;;;11.76;36.01;102523.78;4975138;28;20019;-77
2021/04/06 04:32:41;;;;;;;11.93;2.03;;;;;;;11.86;35.74;102525.69;4975086;28;20031;-78
2021/04/06 04:35:08;;;;;;;4.40;1.63;;;;;;;11.55;36.58;102527.66;4974968;28;20022;-77
2021/04/06 04:37:35;;;;;;;8.07;1.33;;;;;;;11.53;36.80;102519.72;4974947;28;20114;-77
2021/04/06 04:40:01;;;;;;;4.55;1.25;;;;;;;11.74;36.25;102528.72;4974883;28;20382;-77
2021/04/06 04:42:26;;;;;;;5.65;1.38;;;;;;;11.73;36.51;102529.00;4975035;28;20034;-77
2021/04/06 04:44:52;;;;;;;8.10;1.75;;;;;;;11.66;36.92;102524.63;4975238;28;20030;-77
2021/04/06 04:47:17;;;;;;;5.97;1.50;;;;;;;11.62;37.35;102523.53;4973093;28;20614;-78
2021/04/06 04:49:43;;;;;;;7.25;1.33;;;;;;;11.35;37.80;102517.56;4975531;28;20031;-77
2021/04/06 04:52:08;;;;;;;7.95;1.40;;;;;;;11.50;37.41;102514.81;4974567;28;20034;-78
2021/04/06 04:54:34;;;;;;;6.22;1.35;;;;;;;11.41;37.69;102511.00;4974684;28;20037;-77
2021/04/06 04:57:00;;;;;;;8.48;2.33;;;;;;;11.24;37.74;102524.13;4974713;28;20031;-77
2021/04/06 04:59:25;;;;;;;9.38;1.92;;;;;;;11.24;37.67;102521.38;4974534;28;20686;-77
2021/04/06 05:01:51;;;;;;;11.80;2.58;;;;;;;11.18;37.74;102517.00;4974629;28;20034;-77
2021/04/06 05:04:17;;;;;;;36.15;4.47;;;;;;;11.15;38.00;102520.28;4974552;28;20031;-77
2021/04/06 05:06:43;;;;;;;11.77;3.05;;;;;;;11.28;37.84;102522.50;4974795;28;20027;-77
2021/04/06 05:09:08;;;;;;;11.32;2.38;;;;;;;11.01;38.44;102520.00;4974659;28;20030;-78
2021/04/06 05:11:35;;;;;;;5.45;1.65;;;;;;;10.82;38.80;102519.72;4974392;28;20035;-77
2021/04/06 05:14:02;;;;;;;10.52;2.30;;;;;;;11.07;38.62;102508.81;4974348;28;20142;-77
2021/04/06 05:16:28;;;;;;;30.60;4.10;;;;;;;11.24;37.83;102521.38;4974297;28;20169;-77
2021/04/06 05:18:53;;;;;;;15.32;3.42;;;;;;;11.21;37.91;102517.28;4974343;28;20639;-77
2021/04/06 05:21:19;;;;;;;6.57;2.10;;;;;;;11.23;37.72;102525.22;4974343;28;20366;-77
2021/04/06 05:23:44;;;;;;;13.82;2.72;;;;;;;11.14;38.07;102524.13;4974268;28;20473;-77
2021/04/06 05:26:10;;;;;;;10.52;2.20;;;;;;;11.23;37.84;102523.31;4973988;28;20422;-77
2021/04/06 05:28:36;;;;;;;7.93;1.80;;;;;;;11.31;37.62;102525.50;4974204;28;20106;-77
2021/04/06 05:31:01;;;;;;;9.20;2.58;;;;;;;11.33;37.62;102520.56;4974004;28;20113;-77
2021/04/06 05:33:27;;;;;;;8.30;1.83;;;;;;;11.26;37.98;102513.72;4973063;28;20119;-77
2021/04/06 05:35:53;;;;;;;20.85;4.10;;;;;;;11.27;37.87;102518.13;4973962;28;20058;-77
2021/04/06 05:38:19;;;;;;;6.13;2.07;;;;;;;11.40;37.95;102517.53;4974032;28;20059;-77
2021/04/06 05:40:45;;;;;;;9.67;2.20;;;;;;;11.60;37.48;102517.53;4973865;28;20389;-77
2021/04/06 05:43:14;;;;;;;12.07;2.25;;;;;;;11.70;36.93;102526.81;4974299;28;20101;-77
2021/04/06 05:45:45;;;;;;;8.90;3.13;;;;;;;11.52;37.48;102523.56;4973907;28;20050;-77
2021/04/06 05:48:15;;;;;;;11.57;2.50;;;;;;;11.42;37.86;102530.97;4974005;28;20454;-77
2021/04/06 05:50:53;;;;;;;5.97;1.83;;;;;;;11.58;37.60;102533.41;4973847;28;20022;-77
2021/04/06 05:53:19;;;;;;;9.20;1.92;;;;;;;11.46;37.79;102532.88;4974085;28;20027;-77
2021/04/06 05:55:45;;;;;;;6.18;1.95;;;;;;;11.60;37.57;102530.38;4973791;28;20023;-77
2021/04/06 05:58:11;;;;;;;13.98;3.28;;;;;;;11.65;37.38;102527.66;4973873;28;20023;-77
2021/04/06 06:00:38;;;;;;;27.92;5.40;;;;;;;11.61;37.43;102521.91;4973741;28;20500;-77
2021/04/06 06:03:06;;;;;;;7.20;2.20;;;;;;;11.57;37.55;102523.56;4972418;28;20493;-77
2021/04/06 06:05:31;;;;;;;14.90;3.33;;;;;;;11.45;37.78;102531.22;4972520;28;20121;-77
2021/04/06 06:07:57;;;;;;;20.23;4.03;;;;;;;11.57;37.51;102531.78;4973755;28;20106;-78
2021/04/06 06:10:28;;;;;;;6.60;2.20;;;;;;;11.48;37.83;102538.88;4973765;28;20027;-77
2021/04/06 06:12:54;;;;;;;8.93;2.42;;;;;;;11.64;37.63;102537.78;4973558;28;20030;-78
2021/04/06 06:15:20;;;;;;;17.80;2.83;;;;;;;11.44;37.75;102545.19;4973652;28;20031;-77
2021/04/06 06:18:03;;;;;;;19.50;3.97;;;;;;;11.49;38.13;102537.00;4972328;28;20038;-77
2021/04/06 06:20:29;;;;;;;5.45;1.95;;;;;;;11.60;38.13;102539.44;4973640;28;20023;-78
2021/04/06 06:22:55;;;;;;;15.70;4.22;;;;;;;11.58;38.41;102532.59;4973356;28;20081;-77
2021/04/06 06:25:20;;;;;;;18.48;5.15;;;;;;;11.81;38.14;102533.94;4973407;28;20565;-77
2021/04/06 06:27:48;;;;;;;11.55;3.22;;;;;;;11.72;38.25;102519.97;4973427;28;20054;-77
2021/04/06 06:30:31;;;;;;;32.97;7.50;;;;;;;11.86;38.17;102518.34;4973601;28;20114;-77
2021/04/06 06:33:21;;;;;;;38.27;7.07;;;;;;;11.62;38.82;102507.09;4974412;28;20113;-78
2021/04/06 06:35:49;;;;;;;21.92;4.03;;;;;;;12.02;37.67;102499.09;4977344;28;20366;-78
2021/04/06 06:38:30;;;;;;;32.17;6.13;;;;;;;11.87;38.10;102508.19;4977357;28;20027;-78
2021/04/06 06:41:21;;;;;;;20.42;3.17;;;;;;;11.88;38.00;102510.66;4977307;28;20043;-79
2021/04/06 06:43:52;;;;;;;17.35;3.67;;;;;;;11.83;37.87;102512.56;4975905;28;20030;-79
2021/04/06 06:46:25;;;;;;;15.00;2.60;;;;;;;11.27;38.84;102513.47;4977113;28;20055;-81
2021/04/06 06:48:56;;;;;;;7.13;2.00;;;;;;;11.76;38.16;102534.75;4977175;28;20041;-77
2021/04/06 06:51:28;;;;;;;22.73;5.20;;;;;;;11.89;37.90;102547.06;4975771;28;20516;-77
2021/04/06 06:53:54;;;;;;;19.37;4.93;;;;;;;12.07;37.44;102549.19;4977225;28;20053;-76
2021/04/06 06:56:19;;;;;;;20.00;3.92;;;;;;;11.90;37.94;102543.22;4976980;28;20034;-77
2021/04/06 06:58:45;;;;;;;17.92;3.10;;;;;;;11.85;37.95;102538.56;4976994;28;20496;-77
2021/04/06 07:01:24;;;;;;;9.65;3.20;;;;;;;11.86;37.82;102536.66;4976913;28;20433;-80
2021/04/06 07:04:10;;;;;;;20.42;4.63;;;;;;;12.05;37.49;102540.44;4976811;28;20105;-77
2021/04/06 07:06:44;;;;;;;8.63;2.67;;;;;;;12.25;37.40;102525.03;4976675;28;20170;-78
2021/04/06 07:09:21;;;;;;;46.90;11.68;;;;;;;12.26;37.42;102532.16;4976505;28;20153;-76
2021/04/06 07:11:48;;;;;;;8.95;3.58;;;;;;;12.44;37.42;102526.03;4976627;28;20054;-79
2021/04/06 07:14:14;;;;;;;25.05;5.50;;;;;;;12.53;37.15;102531.75;4976570;28;20070;-77
2021/04/06 07:16:40;;;;;;;9.07;2.72;;;;;;;12.29;38.00;102523.38;4976765;28;20027;-76
2021/04/06 07:19:06;;;;;;;11.25;1.90;;;;;;;12.52;37.30;102528.19;4976655;28;20105;-77
2021/04/06 07:21:33;;;;;;;6.68;2.05;;;;;;;12.81;36.76;102530.22;4976356;28;20135;-76
2021/04/06 07:24:09;;;;;;;24.95;4.70;;;;;;;12.68;36.78;102521.50;4976362;28;20037;-76
2021/04/06 07:26:34;;;;;;;12.82;2.63;;;;;;;12.74;36.80;102520.38;4976213;28;20110;-75
2021/04/06 07:29:01;;;;;;;4.90;1.90;;;;;;;12.88;36.44;102531.53;4976159;28;20146;-77
2021/04/06 07:31:27;;;;;;;7.22;2.10;;;;;;;13.01;36.03;102519.91;4976138;28;20034;-77
2021/04/06 07:33:53;;;;;;;7.82;1.85;;;;;;;13.04;36.12;102513.03;4976341;28;20507;-78
2021/04/06 07:36:24;;;;;;;7.40;2.72;;;;;;;13.03;36.06;102525.09;4976558;28;20039;-77
2021/04/06 07:38:53;;;;;;;20.92;3.75;;;;;;;13.01;36.37;102524.59;4976440;28;20054;-80
2021/04/06 07:41:22;;;;;;;9.43;2.00;;;;;;;13.23;36.04;102521.44;4976366;28;20437;-77
2021/04/06 07:43:50;;;;;;;14.52;2.58;;;;;;;13.20;36.03;102520.06;4974650;28;20031;-77
2021/04/06 07:46:33;;;;;;;6.95;2.00;;;;;;;13.28;35.85;102515.88;4975881;28;20087;-76
2021/04/06 07:49:22;;;;;;;16.80;3.25;;;;;;;13.50;35.55;102515.41;4976015;28;20026;-78
2021/04/06 07:51:53;;;;;;;18.10;5.03;;;;;;;13.27;36.15;102509.56;4971867;28;20042;-78
2021/04/06 07:54:42;;;;;;;8.32;2.28;;;;;;;13.47;35.80;102515.97;4972247;28;20100;-78
2021/04/06 07:57:08;;;;;;;9.35;2.22;;;;;;;13.67;35.34;102509.44;4969158;28;20025;-79
2021/04/06 07:59:34;;;;;;;9.00;1.70;;;;;;;13.67;35.47;102504.78;4974723;28;20113;-77
2021/04/06 08:02:03;;;;;;;5.78;1.60;;;;;;;13.90;35.07;102500.41;4975827;28;20150;-77
2021/04/06 08:04:38;;;;;;;13.70;1.85;;;;;;;13.82;35.37;102503.78;4975677;28;20477;-78
2021/04/06 08:07:19;;;;;;;10.32;2.05;;;;;;;13.80;34.67;102484.84;4963116;28;20035;-78
2021/04/06 08:09:48;;;;;;;9.50;2.40;;;;;;;13.36;35.64;102496.03;4958969;28;20022;-79
2021/04/06 08:12:36;;;;;;;13.20;3.10;;;;;;;13.89;34.56;102494.09;4958913;28;20023;-78
2021/04/06 08:15:05;;;;;;;11.68;2.63;;;;;;;14.03;34.49;102490.63;4958471;28;20035;-79
2021/04/06 08:17:30;;;;;;;8.03;1.73;;;;;;;13.99;34.64;102462.13;4958729;28;20031;-79
2021/04/06 08:20:14;;;;;;;7.78;2.00;;;;;;;13.65;34.50;102497.94;4962967;28;20094;-80
2021/04/06 08:22:55;;;;;;;4.85;1.77;;;;;;;14.18;34.20;102495.13;4975295;28;20054;-80
2021/04/06 08:25:26;;;;;;;8.65;1.83;;;;;;;14.47;33.67;102490.34;4972117;28;20050;-78
2021/04/06 08:27:58;;;;;;;4.30;1.52;;;;;;;14.50;33.55;102497.19;4975323;28;20026;-80
2021/04/06 08:30:37;;;;;;;5.40;1.38;;;;;;;14.55;33.59;102502.63;4974801;28;20026;-80
2021/04/06 08:33:03;;;;;;;11.60;3.08;;;;;;;14.83;33.09;102504.41;4975148;28;20388;-80
2021/04/06 08:35:45;;;;;;;35.20;5.28;;;;;;;14.76;33.32;102489.38;4975049;28;20385;-82
2021/04/06 08:38:22;;;;;;;8.77;2.00;;;;;;;14.78;32.74;102493.47;4975042;28;20031;-79
2021/04/06 08:40:51;;;;;;;3.67;1.38;;;;;;;14.92;32.83;102505.34;4974764;28;20126;-77
2021/04/06 08:43:26;;;;;;;6.57;1.88;;;;;;;14.69;32.89;102498.03;4974876;28;20022;-79
2021/04/06 08:45:54;;;;;;;10.27;2.47;;;;;;;14.96;32.64;102503.66;4974661;28;20458;-79
2021/04/06 08:48:48;;;;;;;10.18;1.95;;;;;;;14.35;32.85;102501.75;4974788;28;20027;-81
2021/04/06 08:51:24;;;;;;;7.57;2.17;;;;;;;14.92;32.33;102499.84;4955639;29;20052;-76
2021/04/06 08:54:00;;;;;;;7.75;1.90;;;;;;;15.13;32.36;102507.78;4957860;28;20103;-78
2021/04/06 08:56:34;;;;;;;10.40;1.60;;;;;;;14.94;32.09;102505.06;4965096;28;20034;-77
2021/04/06 08:59:32;;;;;;;6.93;2.28;;;;;;;15.23;31.69;102510.38;4963361;28;20073;-76
2021/04/06 09:02:04;;;;;;;7.57;2.40;;;;;;;15.30;31.44;102509.97;4967134;28;20023;-77
2021/04/06 09:04:39;;;;;;;9.65;3.30;;;;;;;15.43;31.21;102504.50;4966357;28;20055;-77
2021/04/06 09:07:21;;;;;;;11.18;3.30;;;;;;;15.49;31.21;102506.06;4964356;28;20026;-76
2021/04/06 09:09:51;;;;;;;6.25;2.60;;;;;;;15.57;30.86;102504.53;4964375;28;20031;-77
2021/04/06 09:12:17;;;;;;;10.93;2.85;;;;;;;15.54;30.87;102483.09;4964206;28;20478;-75
2021/04/06 09:14:44;;;;;;;20.67;3.63;;;;;;;15.54;30.79;102505.94;4957375;28;20027;-75
2021/04/06 09:17:10;;;;;;;11.25;1.88;;;;;;;15.80;30.55;102502.75;4957341;28;20042;-76
2021/04/06 09:19:37;;;;;;;5.03;1.55;;;;;;;15.99;30.30;102506.22;4957243;28;20026;-75
2021/04/06 09:22:12;;;;;;;5.70;1.48;;;;;;;16.28;30.03;102507.81;4964826;28;20023;-75
2021/04/06 09:24:39;;;;;;;9.55;2.20;;;;;;;16.35;30.02;102498.00;4965052;28;20027;-75
2021/04/06 09:27:06;;;;;;;4.78;1.33;;;;;;;16.20;30.07;102505.78;4964650;28;20433;-75
2021/04/06 09:29:35;;;;;;;3.55;1.27;;;;;;;16.20;29.19;102500.28;4965178;28;20071;-75
2021/04/06 09:32:16;;;;;;;2.38;0.90;;;;;;;16.47;28.78;102494.69;4964439;28;20041;-75
2021/04/06 09:34:49;;;;;;;6.40;1.80;;;;;;;16.46;28.60;102498.56;4971469;28;20558;-75
2021/04/06 09:37:27;;;;;;;6.13;1.42;;;;;;;16.64;28.20;102489.34;4973389;28;20023;-75
2021/04/06 09:39:54;;;;;;;7.60;1.25;;;;;;;16.81;27.87;102493.41;4973936;28;20031;-75
2021/04/06 09:42:21;;;;;;;6.63;1.00;;;;;;;15.88;28.46;102513.06;4974222;28;20475;-77
2021/04/06 09:44:49;;;;;;;26.98;16.00;;;;;;;16.04;28.23;102505.28;4973521;28;20033;-77
2021/04/06 09:47:17;;;;;;;5.50;2.15;;;;;;;15.55;28.86;102513.06;4964886;28;20055;-77
2021/04/06 09:49:46;;;;;;;3.17;2.33;;;;;;;15.87;28.61;102489.38;4964459;28;20081;-76
2021/04/06 09:52:18;;;;;;;5.75;1.30;;;;;;;16.26;28.57;102485.25;4964421;28;20082;-76
2021/04/06 09:54:53;;;;;;;2.25;0.95;;;;;;;15.92;29.11;102478.22;4963893;28;20090;-76
2021/04/06 09:57:20;;;;;;;8.80;1.65;;;;;;;16.51;28.60;102490.19;4960583;28;20509;-75
2021/04/06 09:59:54;;;;;;;3.03;1.35;;;;;;;16.58;28.09;102485.06;4962575;28;20031;-76
2021/04/06 10:02:28;;;;;;;2.70;1.10;;;;;;;16.48;27.95;102485.31;4965194;28;20405;-77
2021/04/06 10:04:55;;;;;;;4.20;1.55;;;;;;;16.64;27.16;102494.88;4967906;28;20031;-76
2021/04/06 10:07:29;;;;;;;5.18;1.48;;;;;;;16.52;27.82;102488.25;4962875;28;20037;-76
2021/04/06 10:10:01;;;;;;;6.47;2.42;;;;;;;15.75;28.12;102491.81;4990397;28;20086;-76
2021/04/06 10:12:29;;;;;;;4.20;1.77;;;;;;;16.46;27.50;102490.31;4967473;28;20446;-74
2021/04/06 10:14:56;;;;;;;3.88;1.65;;;;;;;16.02;27.71;102486.31;4966244;28;20074;-80
2021/04/06 10:17:23;;;;;;;56.67;6.05;;;;;;;16.11;27.49;102491.09;4963677;28;20158;-80
2021/04/06 10:20:00;;;;;;;5.90;1.58;;;;;;;16.59;27.38;102481.19;4961570;28;20496;-79
2021/04/06 10:22:26;;;;;;;4.78;1.35;;;;;;;16.56;26.99;102475.47;4961973;28;20038;-79
2021/04/06 10:25:02;;;;;;;86.38;13.38;;;;;;;16.79;26.80;102479.09;4961380;28;20035;-78
2021/04/06 10:27:36;;;;;;;6.25;1.50;;;;;;;16.67;26.43;102474.09;4970106;28;20034;-81
2021/04/06 10:30:05;;;;;;;5.10;1.33;;;;;;;16.38;27.10;102471.72;4972849;28;20074;-81
2021/04/06 10:32:43;;;;;;;1.98;0.90;;;;;;;16.23;27.04;102466.53;4964807;28;20055;-82
2021/04/06 10:35:12;;;;;;;4.40;1.00;;;;;;;16.26;27.60;102468.72;4966702;28;20038;-80
2021/04/06 10:37:59;;;;;;;4.35;1.20;;;;;;;16.80;26.93;102456.69;4967964;28;20028;-81
2021/04/06 10:40:28;;;;;;;4.47;1.55;;;;;;;17.07;26.67;102466.78;4968110;28;20102;-80
2021/04/06 10:43:19;;;;;;;5.30;0.88;;;;;;;16.82;26.24;102467.41;4967324;28;20027;-80
2021/04/06 10:45:48;;;;;;;6.10;1.00;;;;;;;17.21;26.43;102469.47;4967797;28;20089;-81
2021/04/06 10:48:18;;;;;;;6.20;1.45;;;;;;;17.28;25.94;102458.78;4967339;28;20027;-81
2021/04/06 10:50:49;;;;;;;4.05;0.93;;;;;;;16.85;25.78;102455.75;4965978;28;20070;-79
2021/04/06 10:53:25;;;;;;;2.60;1.13;;;;;;;16.49;26.22;102458.53;4970161;28;20031;-80
2021/04/06 10:56:12;;;;;;;7.00;1.42;;;;;;;16.15;26.01;102450.72;4959850;28;20081;-79
2021/04/06 10:59:00;;;;;;;5.05;0.85;;;;;;;16.29;25.57;102451.53;4960397;28;20027;-79
2021/04/06 11:01:47;;;;;;;5.00;1.63;;;;;;;16.86;25.48;102452.69;4959170;28;20061;-79
2021/04/06 11:04:40;;;;;;;5.47;1.35;;;;;;;16.53;25.26;102462.28;4960037;28;20055;-79
2021/04/06 11:07:09;;;;;;;5.55;1.63;;;;;;;16.94;25.12;102461.34;4955646;28;20050;-78
2021/04/06 11:09:41;;;;;;;6.35;2.15;;;;;;;16.84;24.86;102454.94;4962542;28;20030;-77
2021/04/06 11:12:10;;;;;;;14.52;6.90;;;;;;;16.27;25.66;102456.53;4968391;28;20039;-78
2021/04/06 11:14:37;;;;;;;6.00;3.85;;;;;;;15.91;26.36;102462.00;4973630;28;20114;-79
2021/04/06 11:17:05;;;;;;;6.57;2.83;;;;;;;16.60;25.60;102460.72;4964180;28;20027;-79
2021/04/06 11:19:35;;;;;;;3.47;1.85;;;;;;;16.18;26.60;102480.47;4964764;28;20031;-78
2021/04/06 11:22:09;;;;;;;9.00;1.48;;;;;;;15.03;26.88;102478.47;4963044;28;20496;-78
2021/04/06 11:24:35;;;;;;;3.10;1.20;;;;;;;15.31;27.59;102487.63;4966936;28;20038;-78
2021/04/06 11:27:03;;;;;;;4.18;2.20;;;;;;;15.47;27.63;102491.75;4962128;28;20037;-77
2021/04/06 11:29:31;;;;;;;8.57;2.33;;;;;;;16.08;27.29;102484.25;4957639;28;20507;-79
2021/04/06 11:32:00;;;;;;;2.85;0.98;;;;;;;15.45;27.38;102490.41;4954901;28;20062;-81
2021/04/06 11:34:28;;;;;;;5.82;1.73;;;;;;;15.54;27.51;102486.66;4957708;28;20069;-78
2021/04/06 11:36:55;;;;;;;4.30;1.20;;;;;;;16.34;26.98;102476.25;4958157;28;20031;-78
2021/04/06 11:39:26;;;;;;;5.82;1.60;;;;;;;16.02;27.53;102469.75;4957469;28;20026;-78